Time;durP1;ratioP1;P1;durP2;ratioP2;P2;SDS_P1;SDS_P2;PMS_P1;PMS_P2;Temp;Humidity;BMP_temperature;BMP_pressure;BME280_temperature;BME280_humidity;BME280_pressure;Samples;Min_cycle;Max_cycle;Signal;HPM_P1;HPM_P2
2023/10/14 00:01:14;;;;;;;61.55;37.47;;;21.60;99.60;;;;;;4992747;28;20023;-73
2023/10/14 00:03:50;;;;;;;54.20;35.53;;;21.50;99.80;;;;;;4992457;28;20022;-73
2023/10/14 00:06:19;;;;;;;56.65;36.03;;;21.50;99.80;;;;;;4992977;28;20027;-73
2023/10/14 00:08:54;;;;;;;59.83;36.50;;;21.50;99.80;;;;;;4992894;28;20101;-74
2023/10/14 00:11:21;;;;;;;63.60;36.78;;;21.50;99.90;;;;;;4992849;28;20378;-74
2023/10/14 00:13:52;;;;;;;56.08;35.15;;;21.40;99.90;;;;;;4992973;28;20038;-74
2023/10/14 00:18:49;;;;;;;58.70;38.70;;;21.40;99.90;;;;;;4993116;28;20390;-74
2023/10/14 00:21:15;;;;;;;59.25;38.17;;;21.40;99.90;;;;;;4992866;28;20026;-74
2023/10/14 00:23:44;;;;;;;61.17;38.30;;;21.40;99.90;;;;;;4992964;28;20454;-75
2023/10/14 00:26:14;;;;;;;59.13;38.58;;;21.40;99.90;;;;;;4992941;28;20414;-74
2023/10/14 00:28:43;;;;;;;62.35;39.15;;;21.40;99.90;;;;;;4992955;28;20418;-74
2023/10/14 00:31:10;;;;;;;63.28;38.88;;;21.40;99.90;;;;;;4992794;28;20027;-74
2023/10/14 00:33:37;;;;;;;65.65;39.88;;;21.40;99.90;;;;;;4992484;28;20034;-73
2023/10/14 00:36:08;;;;;;;65.43;39.60;;;21.40;99.90;;;;;;4992173;28;20474;-74
2023/10/14 00:38:34;;;;;;;62.50;39.42;;;21.40;99.90;;;;;;4996423;28;20022;-74
2023/10/14 00:41:00;;;;;;;52.67;36.85;;;21.40;99.90;;;;;;4995121;28;20100;-74
2023/10/14 00:43:26;;;;;;;64.97;39.08;;;21.40;99.90;;;;;;4994965;28;20117;-74
2023/10/14 00:45:52;;;;;;;59.95;38.97;;;21.40;99.90;;;;;;4996452;28;20074;-73
2023/10/14 00:48:23;;;;;;;63.50;39.53;;;21.30;99.90;;;;;;4995995;28;20058;-74
2023/10/14 00:50:50;;;;;;;63.38;38.60;;;21.30;99.90;;;;;;4996211;28;20022;-74
2023/10/14 00:53:18;;;;;;;55.17;38.13;;;21.40;99.90;;;;;;4995769;28;20030;-74
2023/10/14 00:58:12;;;;;;;64.07;39.28;;;21.30;99.90;;;;;;4993854;28;20057;-73
2023/10/14 01:00:56;;;;;;;60.50;38.10;;;21.40;99.90;;;;;;4993662;28;20030;-73
2023/10/14 01:03:23;;;;;;;65.88;41.30;;;21.40;99.90;;;;;;4992827;28;20101;-73
2023/10/14 01:05:49;;;;;;;67.95;40.13;;;21.40;99.90;;;;;;4994808;28;20044;-73
2023/10/14 01:08:15;;;;;;;64.75;39.25;;;21.40;99.90;;;;;;4995365;28;20112;-73
2023/10/14 01:10:42;;;;;;;65.03;40.78;;;21.30;99.90;;;;;;4995280;28;20475;-73
2023/10/14 01:13:14;;;;;;;60.65;39.03;;;21.40;99.90;;;;;;4995112;28;20078;-74
2023/10/14 01:15:48;;;;;;;63.00;39.90;;;21.30;99.90;;;;;;4995470;28;20129;-73
2023/10/14 01:18:14;;;;;;;60.72;40.90;;;21.30;99.90;;;;;;4994254;28;20026;-74
2023/10/14 01:20:46;;;;;;;60.10;39.63;;;21.30;99.90;;;;;;4995306;28;20019;-73
2023/10/14 01:23:15;;;;;;;65.78;41.75;;;21.30;99.90;;;;;;4995534;28;20030;-74
2023/10/14 01:25:47;;;;;;;60.78;39.33;;;21.30;99.90;;;;;;4995684;28;20047;-74
2023/10/14 01:28:15;;;;;;;68.35;41.13;;;21.30;99.90;;;;;;4994671;28;20030;-74
2023/10/14 01:31:35;;;;;;;64.93;40.92;;;21.40;99.90;;;;;;4995168;28;20023;-74
2023/10/14 01:34:01;;;;;;;61.47;40.20;;;21.30;99.90;;;;;;4994902;28;20077;-74
2023/10/14 01:36:37;;;;;;;63.15;40.05;;;21.30;99.90;;;;;;4994863;28;20018;-74
2023/10/14 01:39:09;;;;;;;67.55;41.60;;;21.30;99.90;;;;;;4995041;28;20034;-74
2023/10/14 01:41:35;;;;;;;66.57;40.65;;;21.30;99.90;;;;;;4995197;28;20023;-74
2023/10/14 01:44:05;;;;;;;57.22;40.47;;;21.30;99.90;;;;;;4994944;28;20056;-75
2023/10/14 01:46:39;;;;;;;69.95;42.85;;;21.20;99.90;;;;;;4995379;28;20023;-74
2023/10/14 01:49:16;;;;;;;69.10;42.97;;;21.20;99.90;;;;;;4994716;28;20051;-74
2023/10/14 01:51:43;;;;;;;66.53;41.60;;;21.20;99.90;;;;;;4994876;28;20018;-74
2023/10/14 01:54:10;;;;;;;64.55;41.88;;;21.20;99.90;;;;;;4995025;28;20038;-74
2023/10/14 01:56:37;;;;;;;64.30;39.92;;;21.20;99.90;;;;;;4994695;28;20423;-73
2023/10/14 01:59:03;;;;;;;70.35;42.78;;;21.20;99.90;;;;;;4994699;28;20057;-73
2023/10/14 02:01:41;;;;;;;73.57;44.38;;;21.20;99.90;;;;;;4993380;28;20043;-73
2023/10/14 02:04:07;;;;;;;71.07;44.38;;;21.30;99.90;;;;;;4994365;28;20026;-74
2023/10/14 02:06:33;;;;;;;65.10;43.53;;;21.20;99.90;;;;;;4994821;28;20023;-74
2023/10/14 02:09:00;;;;;;;73.63;45.00;;;21.20;99.90;;;;;;4994839;28;20501;-74
2023/10/14 02:11:33;;;;;;;67.10;43.17;;;21.30;99.90;;;;;;4993469;28;20030;-74
2023/10/14 02:14:07;;;;;;;69.40;44.08;;;21.20;99.90;;;;;;4994655;28;20030;-74
2023/10/14 02:16:42;;;;;;;61.40;41.13;;;21.20;99.90;;;;;;4994299;28;20410;-74
2023/10/14 02:19:18;;;;;;;69.15;43.22;;;21.30;99.90;;;;;;4994445;28;20061;-74
2023/10/14 02:21:57;;;;;;;72.03;44.85;;;21.20;99.90;;;;;;4994586;28;20072;-74
2023/10/14 02:24:25;;;;;;;67.25;43.63;;;21.20;99.90;;;;;;4994269;28;20038;-74
2023/10/14 02:26:51;;;;;;;62.17;43.03;;;21.20;99.90;;;;;;4994435;28;20022;-74
2023/10/14 02:29:17;;;;;;;70.13;44.35;;;21.20;99.90;;;;;;4993963;28;20025;-74
2023/10/14 02:31:46;;;;;;;66.63;42.70;;;21.20;99.90;;;;;;4994329;28;20109;-74
2023/10/14 02:34:15;;;;;;;69.10;43.92;;;21.20;99.90;;;;;;4994283;28;20039;-74
2023/10/14 02:36:50;;;;;;;73.00;43.83;;;21.20;99.90;;;;;;4994007;28;20356;-74
2023/10/14 02:39:27;;;;;;;70.63;42.60;;;21.20;99.90;;;;;;4994002;28;20026;-74
2023/10/14 02:42:00;;;;;;;68.38;44.70;;;21.20;99.90;;;;;;4992817;28;20033;-74
2023/10/14 02:44:32;;;;;;;69.38;46.70;;;21.20;99.90;;;;;;4993675;28;20018;-74
2023/10/14 02:47:05;;;;;;;69.53;43.08;;;21.20;99.90;;;;;;4992572;28;20030;-74
2023/10/14 02:49:53;;;;;;;67.40;41.90;;;21.20;99.90;;;;;;4993741;28;20049;-74
2023/10/14 02:52:28;;;;;;;67.53;42.97;;;21.20;99.90;;;;;;4993747;28;20368;-74
2023/10/14 02:54:55;;;;;;;69.32;44.38;;;21.30;99.90;;;;;;4993991;28;20356;-74
2023/10/14 02:57:28;;;;;;;67.93;43.97;;;21.20;99.90;;;;;;4993772;28;20030;-74
2023/10/14 02:59:56;;;;;;;71.47;44.65;;;21.20;99.90;;;;;;4993700;28;20050;-73
2023/10/14 03:07:45;;;;;;;65.43;43.97;;;21.20;99.90;;;;;;4993452;28;20027;-74
2023/10/14 03:10:18;;;;;;;67.10;43.97;;;21.20;99.90;;;;;;4993082;28;20042;-74
2023/10/14 03:12:50;;;;;;;66.63;43.78;;;21.20;99.90;;;;;;4993494;28;20037;-74
2023/10/14 03:15:22;;;;;;;67.15;42.05;;;21.20;99.90;;;;;;4993514;28;20038;-74
2023/10/14 03:17:56;;;;;;;60.40;40.05;;;21.30;99.90;;;;;;4993465;28;20030;-74
2023/10/14 03:23:23;;;;;;;65.38;42.28;;;21.20;99.90;;;;;;4993501;28;20034;-74
2023/10/14 03:26:20;;;;;;;68.10;44.20;;;21.20;99.90;;;;;;4993356;28;20097;-75
2023/10/14 03:28:50;;;;;;;65.57;43.70;;;21.20;99.90;;;;;;4993103;28;20109;-75
2023/10/14 03:31:19;;;;;;;67.05;43.95;;;21.20;99.90;;;;;;4993281;28;20370;-74
2023/10/14 03:33:45;;;;;;;60.28;41.33;;;21.20;99.90;;;;;;4993038;28;20367;-74
2023/10/14 03:36:15;;;;;;;59.50;40.22;;;21.20;99.90;;;;;;4993323;28;20045;-74
2023/10/14 03:38:46;;;;;;;55.20;40.88;;;21.20;99.90;;;;;;4992805;28;20041;-74
2023/10/14 03:43:48;;;;;;;62.45;39.80;;;21.20;99.90;;;;;;4993301;28;20030;-74
2023/10/14 03:46:15;;;;;;;62.55;40.08;;;21.20;99.90;;;;;;4993098;28;20018;-74
2023/10/14 03:48:47;;;;;;;62.40;42.45;;;21.10;99.90;;;;;;4993360;28;20410;-74
2023/10/14 03:51:24;;;;;;;63.67;39.88;;;21.20;99.90;;;;;;4993369;28;20073;-74
2023/10/14 03:53:55;;;;;;;64.68;41.42;;;21.10;99.90;;;;;;4992967;28;20437;-74
2023/10/14 03:56:31;;;;;;;62.67;41.25;;;21.10;99.90;;;;;;4993378;28;20034;-74
2023/10/14 03:59:02;;;;;;;64.82;41.85;;;21.10;99.90;;;;;;4993053;28;20060;-74
2023/10/14 04:04:22;;;;;;;63.45;42.40;;;21.10;99.90;;;;;;4993141;28;20035;-73
2023/10/14 04:09:37;;;;;;;65.70;43.17;;;21.10;99.90;;;;;;4991466;28;20071;-74
2023/10/14 04:12:30;;;;;;;66.95;43.70;;;21.10;99.90;;;;;;4995334;28;20390;-73
2023/10/14 04:15:06;;;;;;;;;;;21.10;99.90;;;;;;4996824;28;20042;-74
2023/10/14 04:17:32;;;;;;;64.72;41.75;;;21.10;99.90;;;;;;4996700;28;19928;-74
2023/10/14 04:20:15;;;;;;;64.75;43.47;;;21.10;99.90;;;;;;4996650;28;20442;-74
2023/10/14 04:22:41;;;;;;;65.78;44.55;;;21.10;99.90;;;;;;4996727;28;20387;-74
2023/10/14 04:25:22;;;;;;;73.00;45.65;;;21.10;99.90;;;;;;4996592;28;20065;-73
2023/10/14 04:35:37;;;;;;;63.75;43.55;;;21.00;99.90;;;;;;4996200;28;20114;-74
2023/10/14 04:38:17;;;;;;;69.85;43.42;;;21.00;99.90;;;;;;4996126;28;20034;-74
2023/10/14 04:40:53;;;;;;;67.60;42.25;;;21.00;99.90;;;;;;4996107;28;20018;-73
2023/10/14 04:43:37;;;;;;;62.55;41.92;;;21.00;99.90;;;;;;4996460;28;20045;-74
2023/10/14 04:48:35;;;;;;;67.95;42.38;;;21.00;99.90;;;;;;4996100;28;20100;-74
2023/10/14 04:51:15;;;;;;;66.90;45.28;;;21.00;99.90;;;;;;4996154;28;20030;-74
2023/10/14 04:53:44;;;;;;;67.68;44.25;;;21.00;99.90;;;;;;4996042;28;20115;-74
2023/10/14 04:56:21;;;;;;;65.38;44.83;;;21.00;99.90;;;;;;4995809;28;20030;-74
2023/10/14 04:58:52;;;;;;;71.05;44.38;;;21.00;99.90;;;;;;4996049;28;20356;-74
2023/10/14 05:01:18;;;;;;;67.63;43.47;;;21.00;99.90;;;;;;4995863;28;20084;-74
2023/10/14 05:03:44;;;;;;;68.30;43.22;;;21.00;99.90;;;;;;4995745;28;20105;-74
2023/10/14 05:09:00;;;;;;;67.07;43.00;;;20.90;99.90;;;;;;4995655;28;20109;-74
2023/10/14 05:11:25;;;;;;;68.53;43.72;;;21.00;99.90;;;;;;4995454;28;20072;-74
2023/10/14 05:14:08;;;;;;;72.13;46.33;;;20.90;99.90;;;;;;4995314;28;20038;-73
2023/10/14 05:16:55;;;;;;;64.55;43.40;;;20.90;99.90;;;;;;4995641;28;20374;-73
2023/10/14 05:19:41;;;;;;;72.53;46.03;;;20.90;99.90;;;;;;4995693;28;20363;-74
2023/10/14 05:22:37;;;;;;;65.65;45.70;;;20.90;99.90;;;;;;4994612;28;20062;-73
2023/10/14 05:25:15;;;;;;;70.85;46.00;;;21.00;99.90;;;;;;4995109;28;20113;-74
2023/10/14 05:27:58;;;;;;;72.88;45.78;;;20.90;99.90;;;;;;4995471;28;20026;-74
2023/10/14 05:30:32;;;;;;;66.47;45.17;;;21.00;99.90;;;;;;4995070;28;20032;-74
2023/10/14 05:33:06;;;;;;;69.95;46.35;;;20.90;99.90;;;;;;4995488;28;20088;-74
2023/10/14 05:35:38;;;;;;;71.00;46.78;;;21.00;99.90;;;;;;4995300;28;20446;-74
2023/10/14 05:38:09;;;;;;;70.20;46.78;;;20.90;99.90;;;;;;4995533;28;20351;-74
2023/10/14 05:40:44;;;;;;;69.57;44.83;;;20.90;99.90;;;;;;4995645;28;20030;-74
2023/10/14 05:43:10;;;;;;;71.10;45.65;;;20.90;99.90;;;;;;4995355;28;20026;-74
2023/10/14 05:45:37;;;;;;;69.38;44.92;;;21.00;99.90;;;;;;4994942;28;20077;-74
2023/10/14 05:48:07;;;;;;;69.95;45.22;;;20.90;99.90;;;;;;4994851;28;20073;-74
2023/10/14 05:50:37;;;;;;;65.47;43.47;;;20.90;99.90;;;;;;4994527;28;20030;-73
2023/10/14 05:53:07;;;;;;;73.35;46.60;;;20.90;99.90;;;;;;4992940;28;20404;-74
2023/10/14 05:55:34;;;;;;;68.18;45.55;;;20.90;99.90;;;;;;4993035;28;20045;-73
2023/10/14 05:58:02;;;;;;;71.90;44.88;;;20.90;99.90;;;;;;4993938;28;20463;-74
2023/10/14 06:00:29;;;;;;;67.35;45.88;;;20.90;99.90;;;;;;4994241;28;20387;-73
2023/10/14 06:02:57;;;;;;;67.22;44.63;;;20.90;99.90;;;;;;4969429;28;20034;-74
2023/10/14 06:05:32;;;;;;;64.53;43.25;;;20.90;99.90;;;;;;5012428;28;20091;-74
2023/10/14 06:08:05;;;;;;;69.47;44.45;;;20.90;99.90;;;;;;5013680;28;20022;-74
2023/10/14 06:10:36;;;;;;;67.18;44.03;;;20.90;99.90;;;;;;5013903;28;20030;-73
2023/10/14 06:13:08;;;;;;;63.33;44.60;;;20.90;99.90;;;;;;5013857;28;20112;-74
2023/10/14 06:15:44;;;;;;;68.95;45.63;;;20.90;99.90;;;;;;5014278;28;20018;-74
2023/10/14 06:18:13;;;;;;;74.03;45.97;;;20.90;99.90;;;;;;5012828;28;20378;-74
2023/10/14 06:20:42;;;;;;;66.60;40.72;;;20.90;99.90;;;;;;5012288;28;20080;-74
2023/10/14 06:23:08;;;;;;;56.22;38.72;;;20.90;99.90;;;;;;5012202;28;20022;-74
2023/10/14 06:25:36;;;;;;;59.83;38.70;;;21.00;99.90;;;;;;5011245;28;20022;-74
2023/10/14 06:28:03;;;;;;;54.42;37.33;;;21.00;99.90;;;;;;5009702;28;20148;-74
2023/10/14 06:30:33;;;;;;;58.85;36.70;;;20.90;99.90;;;;;;5009753;28;20030;-74
2023/10/14 06:33:03;;;;;;;60.55;37.53;;;21.00;99.90;;;;;;5011718;28;20116;-74
2023/10/14 06:35:34;;;;;;;57.70;37.65;;;21.00;99.90;;;;;;5011793;28;20501;-74
2023/10/14 06:38:00;;;;;;;57.13;36.55;;;20.90;99.90;;;;;;5012369;28;20025;-74
2023/10/14 06:40:35;;;;;;;62.33;39.97;;;21.00;99.90;;;;;;5012955;28;20022;-74
2023/10/14 06:43:06;;;;;;;58.90;39.72;;;20.90;99.90;;;;;;5013374;28;20029;-74
2023/10/14 06:45:40;;;;;;;59.47;39.75;;;20.90;99.90;;;;;;5013390;28;20375;-73
2023/10/14 06:48:09;;;;;;;61.67;40.65;;;20.90;99.90;;;;;;5013291;28;20169;-74
2023/10/14 06:50:42;;;;;;;60.60;39.30;;;21.00;99.90;;;;;;5012562;28;20474;-74
2023/10/14 06:53:11;;;;;;;60.28;38.90;;;21.00;99.90;;;;;;5010208;28;20049;-74
2023/10/14 06:55:40;;;;;;;61.85;40.20;;;21.00;99.90;;;;;;5010411;28;20030;-74
2023/10/14 06:58:11;;;;;;;60.35;39.83;;;21.10;99.90;;;;;;5012136;28;20018;-74
2023/10/14 07:00:48;;;;;;;67.05;38.90;;;21.10;99.90;;;;;;5012979;28;20040;-74
2023/10/14 07:03:15;;;;;;;63.05;38.35;;;21.10;99.90;;;;;;5013472;28;20378;-74
2023/10/14 07:08:21;;;;;;;52.65;36.20;;;21.20;99.90;;;;;;5012851;28;20057;-74
2023/10/14 07:10:50;;;;;;;54.28;35.85;;;21.20;99.90;;;;;;5013224;28;20026;-74
2023/10/14 07:13:17;;;;;;;57.53;34.92;;;21.30;99.90;;;;;;5012755;28;20029;-74
2023/10/14 07:15:44;;;;;;;59.53;33.90;;;21.30;99.90;;;;;;5013076;28;20025;-74
2023/10/14 07:18:13;;;;;;;50.38;33.85;;;21.40;99.90;;;;;;5012655;28;20026;-74
2023/10/14 07:20:41;;;;;;;43.20;25.88;;;21.50;99.80;;;;;;5012771;28;20398;-74
2023/10/14 07:23:10;;;;;;;48.80;26.75;;;21.50;99.60;;;;;;5012940;28;20045;-74
2023/10/14 07:25:41;;;;;;;41.85;26.23;;;21.60;99.50;;;;;;5011182;28;20026;-74
2023/10/14 07:28:15;;;;;;;41.25;24.63;;;21.50;99.40;;;;;;5012001;28;20056;-74
2023/10/14 07:30:48;;;;;;;43.85;23.98;;;21.60;99.30;;;;;;5012849;28;20037;-74
2023/10/14 07:33:15;;;;;;;40.63;23.15;;;21.60;99.20;;;;;;5012210;28;20029;-74
2023/10/14 07:35:41;;;;;;;34.90;22.48;;;21.70;99.10;;;;;;5011895;28;20030;-74
2023/10/14 07:38:08;;;;;;;32.45;21.33;;;21.70;99.00;;;;;;5012246;28;20018;-74
2023/10/14 07:40:34;;;;;;;37.55;23.38;;;21.70;98.70;;;;;;5012429;28;20018;-75
2023/10/14 07:43:10;;;;;;;44.17;23.40;;;21.70;98.60;;;;;;5012218;28;20415;-75
2023/10/14 07:45:46;;;;;;;34.05;23.10;;;21.80;98.60;;;;;;5013726;28;20045;-78
2023/10/14 07:48:13;;;;;;;37.70;22.27;;;21.80;98.50;;;;;;5016446;28;20050;-77
2023/10/14 07:50:44;;;;;;;28.38;20.70;;;21.80;98.50;;;;;;5016203;28;20017;-78
2023/10/14 07:53:14;;;;;;;34.25;21.33;;;21.80;98.50;;;;;;5015751;28;20456;-77
2023/10/14 07:55:47;;;;;;;41.13;21.65;;;21.90;98.50;;;;;;5013689;28;20038;-78
2023/10/14 07:58:14;;;;;;;33.97;20.38;;;21.80;98.50;;;;;;5015770;28;20496;-76
2023/10/14 08:00:51;;;;;;;35.38;21.27;;;21.80;98.40;;;;;;5015862;28;20390;-76
2023/10/14 08:03:20;;;;;;;31.45;20.58;;;21.80;98.40;;;;;;5016214;28;20025;-77
2023/10/14 08:05:51;;;;;;;28.42;18.92;;;21.90;98.40;;;;;;5015600;28;20018;-76
2023/10/14 08:08:19;;;;;;;32.93;19.37;;;21.80;98.30;;;;;;5016028;28;20029;-77
2023/10/14 08:10:50;;;;;;;32.63;20.27;;;21.80;98.10;;;;;;5015948;28;20552;-76
2023/10/14 08:13:21;;;;;;;31.60;19.23;;;21.90;98.00;;;;;;5014495;28;20397;-77
2023/10/14 08:15:50;;;;;;;27.02;15.90;;;21.90;98.00;;;;;;5016714;28;20018;-77
2023/10/14 08:18:17;;;;;;;31.63;17.70;;;21.90;97.90;;;;;;5016718;28;20030;-76
2023/10/14 08:20:43;;;;;;;26.55;17.35;;;21.90;97.90;;;;;;5016440;28;20390;-76
2023/10/14 08:23:10;;;;;;;32.13;17.67;;;21.90;97.90;;;;;;5014928;28;20473;-76
2023/10/14 08:25:41;;;;;;;28.38;18.88;;;21.90;98.00;;;;;;5013393;28;20022;-75
2023/10/14 08:28:08;;;;;;;28.25;17.05;;;21.90;98.00;;;;;;5007134;28;20093;-77
2023/10/14 08:30:45;;;;;;;31.15;18.35;;;22.00;97.90;;;;;;5014356;28;20430;-77
2023/10/14 08:33:15;;;;;;;26.52;16.88;;;22.00;97.70;;;;;;5015332;28;20034;-76
2023/10/14 08:35:44;;;;;;;29.80;18.42;;;22.00;97.70;;;;;;5015423;28;20030;-77
2023/10/14 08:38:14;;;;;;;28.48;18.95;;;22.10;97.90;;;;;;5014128;28;20363;-76
2023/10/14 08:40:49;;;;;;;27.05;18.63;;;22.10;98.00;;;;;;5015505;28;20030;-77
2023/10/14 08:43:23;;;;;;;24.33;15.48;;;22.20;98.00;;;;;;5015426;28;20048;-76
2023/10/14 08:45:49;;;;;;;24.95;16.55;;;22.20;97.80;;;;;;5015535;28;20377;-77
2023/10/14 08:48:16;;;;;;;25.13;15.80;;;22.20;97.70;;;;;;5015354;28;20049;-76
2023/10/14 08:50:45;;;;;;;28.77;15.68;;;22.30;97.50;;;;;;5013870;28;20071;-76
2023/10/14 08:53:14;;;;;;;24.70;14.90;;;22.30;97.40;;;;;;5015027;28;20054;-76
2023/10/14 08:55:44;;;;;;;31.33;16.13;;;22.30;97.40;;;;;;5015387;28;20018;-76
2023/10/14 08:58:15;;;;;;;25.23;16.30;;;22.30;97.40;;;;;;5014581;28;20033;-76
2023/10/14 09:00:43;;;;;;;27.98;16.48;;;22.40;97.50;;;;;;5014607;28;20105;-77
2023/10/14 09:03:10;;;;;;;25.65;16.77;;;22.40;97.60;;;;;;5015235;28;20034;-77
2023/10/14 09:05:41;;;;;;;27.58;15.70;;;22.40;97.50;;;;;;5015132;28;20345;-77
2023/10/14 09:08:22;;;;;;;28.95;16.40;;;22.40;97.10;;;;;;5013739;28;20034;-76
2023/10/14 09:10:52;;;;;;;25.00;16.83;;;22.40;97.00;;;;;;5013943;28;20018;-76
2023/10/14 09:13:22;;;;;;;24.02;16.25;;;22.30;97.10;;;;;;5014627;28;20454;-76
2023/10/14 09:15:49;;;;;;;26.70;17.33;;;22.30;97.10;;;;;;5015216;28;20032;-77
2023/10/14 09:18:22;;;;;;;35.90;16.98;;;22.30;97.10;;;;;;5014197;28;20030;-77
2023/10/14 09:20:55;;;;;;;22.48;17.23;;;22.30;97.10;;;;;;5013301;28;20022;-77
2023/10/14 09:23:30;;;;;;;29.02;18.00;;;22.30;97.10;;;;;;5013236;28;20022;-78
2023/10/14 09:26:01;;;;;;;35.47;19.30;;;22.30;97.00;;;;;;5013753;28;20022;-77
2023/10/14 09:28:35;;;;;;;29.60;17.92;;;22.20;97.00;;;;;;5013599;28;20391;-78
2023/10/14 09:31:08;;;;;;;26.02;17.08;;;22.30;97.20;;;;;;5011591;28;20025;-74
2023/10/14 09:33:42;;;;;;;27.83;15.82;;;22.20;97.20;;;;;;5011433;28;20123;-74
2023/10/14 09:36:14;;;;;;;27.92;15.35;;;22.20;97.20;;;;;;5013176;28;20041;-75
2023/10/14 09:38:41;;;;;;;26.05;16.20;;;22.20;97.20;;;;;;5014672;28;20054;-75
2023/10/14 09:41:10;;;;;;;27.63;16.15;;;22.20;97.10;;;;;;5014780;28;20078;-75
2023/10/14 09:43:42;;;;;;;33.95;16.42;;;22.20;97.10;;;;;;5014889;28;20025;-75
2023/10/14 09:46:12;;;;;;;23.80;14.93;;;22.20;97.10;;;;;;5014534;28;20022;-75
2023/10/14 09:48:40;;;;;;;23.30;14.90;;;22.20;97.10;;;;;;5014648;28;20045;-76
2023/10/14 09:51:07;;;;;;;23.33;15.65;;;22.20;97.10;;;;;;5014839;28;20137;-75
2023/10/14 09:53:34;;;;;;;26.25;15.68;;;22.20;97.10;;;;;;5012956;28;20493;-76
2023/10/14 09:56:11;;;;;;;23.10;15.00;;;22.20;97.20;;;;;;5013100;28;20036;-75
2023/10/14 09:58:42;;;;;;;23.13;13.95;;;22.20;97.10;;;;;;5014664;28;20022;-76
2023/10/14 10:01:15;;;;;;;21.83;13.57;;;22.20;97.10;;;;;;5014303;28;20026;-75
2023/10/14 10:04:13;;;;;;;25.20;13.85;;;22.20;97.10;;;;;;5014521;28;20304;-75
2023/10/14 10:07:03;;;;;;;20.33;12.07;;;22.20;97.10;;;;;;5012860;28;20030;-75
2023/10/14 10:09:52;;;;;;;22.85;12.32;;;22.30;97.00;;;;;;5014225;28;20378;-74
2023/10/14 10:12:20;;;;;;;23.60;11.57;;;22.20;96.60;;;;;;5013238;28;20032;-74
2023/10/14 10:14:47;;;;;;;24.65;11.60;;;22.30;96.50;;;;;;5010962;28;20054;-74
2023/10/14 10:17:15;;;;;;;22.48;12.48;;;22.30;96.40;;;;;;5011855;28;20470;-73
2023/10/14 10:20:09;;;;;;;20.48;11.98;;;22.30;96.40;;;;;;5013298;28;20026;-74
2023/10/14 10:22:50;;;;;;;17.73;12.18;;;22.30;96.30;;;;;;5012812;28;20061;-74
2023/10/14 10:25:17;;;;;;;18.40;11.63;;;22.20;96.20;;;;;;5012716;28;20034;-73
2023/10/14 10:27:47;;;;;;;21.65;13.93;;;22.20;96.20;;;;;;5014240;28;20291;-73
2023/10/14 10:30:20;;;;;;;25.45;14.23;;;22.20;96.10;;;;;;5013686;28;20034;-74
2023/10/14 10:32:50;;;;;;;21.85;11.85;;;22.20;96.00;;;;;;5013838;28;20041;-73
2023/10/14 10:35:18;;;;;;;14.98;11.43;;;22.20;95.80;;;;;;5013919;28;20023;-74
2023/10/14 10:37:57;;;;;;;20.80;11.55;;;22.20;95.80;;;;;;5013950;28;20033;-74
2023/10/14 10:40:26;;;;;;;15.25;11.80;;;22.20;95.50;;;;;;5014112;28;20033;-73
2023/10/14 10:42:54;;;;;;;19.77;11.07;;;22.20;95.30;;;;;;5013728;28;20049;-73
2023/10/14 10:45:29;;;;;;;20.35;10.20;;;22.20;95.00;;;;;;5013626;28;20026;-73
2023/10/14 10:48:05;;;;;;;15.32;11.60;;;22.20;94.90;;;;;;5013455;28;20037;-73
2023/10/14 10:50:34;;;;;;;18.98;11.23;;;22.20;95.00;;;;;;5013545;28;20026;-74
2023/10/14 10:53:10;;;;;;;17.35;12.13;;;22.30;95.10;;;;;;5012495;28;20044;-74
2023/10/14 10:55:41;;;;;;;20.92;11.73;;;22.30;95.10;;;;;;5013837;28;20099;-74
2023/10/14 10:58:14;;;;;;;20.25;11.43;;;22.40;94.60;;;;;;5013406;28;20373;-74
2023/10/14 11:00:48;;;;;;;21.23;10.30;;;22.40;94.50;;;;;;5013273;28;20025;-74
2023/10/14 11:03:16;;;;;;;16.13;10.32;;;22.50;93.80;;;;;;5013267;28;20160;-74
2023/10/14 11:05:44;;;;;;;20.70;10.70;;;22.50;93.40;;;;;;5013680;28;20112;-73
2023/10/14 11:08:10;;;;;;;15.40;10.65;;;22.60;93.20;;;;;;5013152;28;20022;-73
2023/10/14 11:10:38;;;;;;;27.92;10.82;;;22.60;93.40;;;;;;5013317;28;20026;-74
2023/10/14 11:13:11;;;;;;;17.00;10.07;;;22.70;92.60;;;;;;5013086;28;20133;-74
2023/10/14 11:15:37;;;;;;;18.33;11.73;;;22.80;92.60;;;;;;5013218;28;20037;-73
2023/10/14 11:18:04;;;;;;;19.60;10.48;;;22.80;92.50;;;;;;5013263;28;20036;-74
2023/10/14 11:20:45;;;;;;;21.70;10.65;;;22.90;92.30;;;;;;5012517;28;20025;-73
2023/10/14 11:23:12;;;;;;;19.48;10.50;;;22.90;91.80;;;;;;5012942;28;20034;-74
2023/10/14 11:25:44;;;;;;;16.17;9.52;;;23.00;91.80;;;;;;5013110;28;20425;-73
2023/10/14 11:28:11;;;;;;;18.40;8.95;;;23.00;91.50;;;;;;5013100;28;20394;-74
2023/10/14 11:30:42;;;;;;;16.63;9.07;;;23.10;91.40;;;;;;5012632;28;20378;-74
2023/10/14 11:33:12;;;;;;;15.48;9.30;;;23.20;91.40;;;;;;5012825;28;20459;-74
2023/10/14 11:35:38;;;;;;;13.30;8.30;;;23.20;89.90;;;;;;5012808;28;20029;-73
2023/10/14 11:38:16;;;;;;;19.42;9.48;;;23.20;90.00;;;;;;5013070;28;20030;-74
2023/10/14 11:40:48;;;;;;;20.92;10.40;;;23.30;90.20;;;;;;5012944;28;20414;-73
2023/10/14 11:43:21;;;;;;;14.55;8.88;;;23.30;90.40;;;;;;5012847;28;20022;-73
2023/10/14 11:45:47;;;;;;;16.75;8.20;;;23.40;90.70;;;;;;5012983;28;20025;-73
2023/10/14 11:48:43;;;;;;;19.52;10.10;;;23.40;89.70;;;;;;5012860;28;20383;-73
2023/10/14 11:51:21;;;;;;;18.42;8.75;;;23.40;90.10;;;;;;5012972;28;20034;-74
2023/10/14 11:53:50;;;;;;;14.32;7.95;;;23.30;90.50;;;;;;5012744;28;20034;-74
2023/10/14 11:56:17;;;;;;;15.52;8.50;;;23.30;89.40;;;;;;5013083;28;20030;-74
2023/10/14 11:58:45;;;;;;;21.33;10.85;;;23.30;89.60;;;;;;5010477;28;20968;-73
2023/10/14 12:01:12;;;;;;;12.18;8.45;;;23.30;90.20;;;;;;5009679;28;20296;-73
2023/10/14 12:03:43;;;;;;;19.02;8.18;;;23.30;90.30;;;;;;5009933;28;20113;-74
2023/10/14 12:06:12;;;;;;;11.45;7.18;;;23.30;90.30;;;;;;5012050;28;20026;-73
2023/10/14 12:08:45;;;;;;;13.15;7.95;;;23.30;90.10;;;;;;5013012;28;20116;-72
2023/10/14 12:11:13;;;;;;;20.17;9.77;;;23.30;90.20;;;;;;5011281;28;20037;-74
2023/10/14 12:13:40;;;;;;;14.13;8.35;;;23.30;90.40;;;;;;5012290;28;20045;-73
2023/10/14 12:16:07;;;;;;;13.75;7.45;;;23.30;90.60;;;;;;5012255;28;20021;-74
2023/10/14 12:18:36;;;;;;;12.70;7.78;;;23.30;90.30;;;;;;5011108;28;20083;-73
2023/10/14 12:21:03;;;;;;;14.38;7.22;;;23.30;90.40;;;;;;5010591;28;20018;-76
2023/10/14 12:23:32;;;;;;;13.60;6.95;;;23.30;90.20;;;;;;5010382;28;20022;-74
2023/10/14 12:26:00;;;;;;;12.18;6.72;;;23.30;90.50;;;;;;5008447;28;20368;-75
2023/10/14 12:28:26;;;;;;;10.30;6.57;;;23.40;90.60;;;;;;5008216;28;20025;-74
2023/10/14 12:31:02;;;;;;;11.20;7.22;;;23.40;90.00;;;;;;5010109;28;20144;-76
2023/10/14 12:33:32;;;;;;;12.02;6.43;;;23.50;89.80;;;;;;5014110;28;20041;-77
2023/10/14 12:36:00;;;;;;;12.98;6.78;;;23.50;89.60;;;;;;5016188;28;20026;-76
2023/10/14 12:38:27;;;;;;;13.23;6.68;;;23.60;89.60;;;;;;5016330;28;20442;-79
2023/10/14 12:40:53;;;;;;;10.48;6.15;;;23.60;89.20;;;;;;5016367;28;20029;-79
2023/10/14 12:43:40;;;;;;;15.88;6.72;;;23.70;89.50;;;;;;5016081;28;20385;-78
2023/10/14 12:46:09;;;;;;;13.43;7.85;;;23.70;88.80;;;;;;5015756;28;20030;-79
2023/10/14 12:48:39;;;;;;;13.88;6.57;;;23.80;89.90;;;;;;5016014;28;20405;-77
2023/10/14 12:51:21;;;;;;;147.32;14.05;;;23.80;90.30;;;;;;5015894;28;20033;-78
2023/10/14 12:53:47;;;;;;;8.98;6.53;;;23.90;91.60;;;;;;5015605;28;20037;-81
2023/10/14 12:56:14;;;;;;;19.33;8.38;;;23.90;90.60;;;;;;5015876;28;20097;-79
2023/10/14 12:58:43;;;;;;;14.40;6.55;;;23.90;91.50;;;;;;5015977;28;20053;-79
2023/10/14 13:01:16;;;;;;;22.95;14.40;;;24.00;90.50;;;;;;5013713;28;20044;-79
2023/10/14 13:03:52;;;;;;;18.92;9.07;;;24.00;90.10;;;;;;4970660;28;20053;-75
2023/10/14 13:06:26;;;;;;;13.85;8.13;;;24.00;90.10;;;;;;5015483;28;20021;-76
2023/10/14 13:09:01;;;;;;;14.73;7.95;;;24.10;89.50;;;;;;5014336;28;20049;-75
2023/10/14 13:11:31;;;;;;;15.35;8.13;;;24.10;88.50;;;;;;5015400;28;20026;-76
2023/10/14 13:14:00;;;;;;;15.95;8.18;;;24.10;88.40;;;;;;5015492;28;20030;-76
2023/10/14 13:16:26;;;;;;;11.93;7.63;;;24.10;88.60;;;;;;5015560;28;20087;-76
2023/10/14 13:18:59;;;;;;;14.75;7.63;;;24.10;87.60;;;;;;5015739;28;20429;-77
2023/10/14 13:21:31;;;;;;;16.95;8.07;;;24.10;88.50;;;;;;5015330;28;20097;-75
2023/10/14 13:23:57;;;;;;;;;;;24.00;88.90;;;;;;5015597;28;20052;-76
2023/10/14 13:26:25;;;;;;;13.57;7.72;;;24.00;88.50;;;;;;5015330;28;19906;-75